Ongar, United Kingdom
Current Conditions -  °F | °C
As of 7:20 PM on Friday 24 Oct 2014 (Local Time) from EGSS Reporting Station
Broken Clouds Broken Clouds  
Wind Chill: 15°   Ceiling: 4400
Heat Index: 15°   Visibility: 6mi
Dew Point: 14°   Wind: 9mph
Humidity: 94%   Direction: 210°SSW
Pressure: 29.88"   Gusts: NA
Location:  51.71°N, 0.24°E
Report Text: EGSS 241820Z 21008KT 9999 FEW014 BKN044 15/14 Q1012
Loading
Personal Weather Stations






























Interactive Weather Map
Tropical Storm Tracking
New forecast layout! Learn more

10-Day Weather Forecast

Advertisements
Track Severe Weather on mobile